sensor_id;sensor_type;location;lat;lon;timestamp;temperature;humidity
22974;DHT22;11653;50.848;4.584;2022-08-24T00:00:15;20.50;99.90
22974;DHT22;11653;50.848;4.584;2022-08-24T00:02:41;20.40;99.90
22974;DHT22;11653;50.848;4.584;2022-08-24T00:05:08;20.40;99.90
22974;DHT22;11653;50.848;4.584;2022-08-24T00:07:34;20.40;99.90
22974;DHT22;11653;50.848;4.584;2022-08-24T00:10:00;20.40;99.90
22974;DHT22;11653;50.848;4.584;2022-08-24T00:12:26;20.50;99.90
22974;DHT22;11653;50.848;4.584;2022-08-24T00:14:53;20.40;99.90
22974;DHT22;11653;50.848;4.584;2022-08-24T00:17:20;20.40;99.90
22974;DHT22;11653;50.848;4.584;2022-08-24T00:19:46;20.40;99.90
22974;DHT22;11653;50.848;4.584;2022-08-24T00:22:12;20.40;99.90
22974;DHT22;11653;50.848;4.584;2022-08-24T00:24:38;20.40;99.90
22974;DHT22;11653;50.848;4.584;2022-08-24T00:27:05;20.30;99.90
22974;DHT22;11653;50.848;4.584;2022-08-24T00:29:31;20.30;99.90
22974;DHT22;11653;50.848;4.584;2022-08-24T00:31:57;20.30;99.90
22974;DHT22;11653;50.848;4.584;2022-08-24T00:34:23;20.20;99.90
22974;DHT22;11653;50.848;4.584;2022-08-24T00:36:51;20.20;99.90
22974;DHT22;11653;50.848;4.584;2022-08-24T00:39:17;20.10;99.90
22974;DHT22;11653;50.848;4.584;2022-08-24T00:41:45;20.10;99.90
22974;DHT22;11653;50.848;4.584;2022-08-24T00:44:11;20.10;99.90
22974;DHT22;11653;50.848;4.584;2022-08-24T00:49:13;20.00;99.90
22974;DHT22;11653;50.848;4.584;2022-08-24T00:51:49;20.00;99.90
22974;DHT22;11653;50.848;4.584;2022-08-24T00:54:16;20.00;99.90
22974;DHT22;11653;50.848;4.584;2022-08-24T00:56:54;20.00;99.90
22974;DHT22;11653;50.848;4.584;2022-08-24T00:59:23;20.00;99.90
22974;DHT22;11653;50.848;4.584;2022-08-24T01:01:51;20.00;99.90
22974;DHT22;11653;50.848;4.584;2022-08-24T01:04:24;20.00;99.90
22974;DHT22;11653;50.848;4.584;2022-08-24T01:06:54;19.90;99.90
22974;DHT22;11653;50.848;4.584;2022-08-24T01:09:19;19.80;99.90
22974;DHT22;11653;50.848;4.584;2022-08-24T01:11:46;19.80;99.90
22974;DHT22;11653;50.848;4.584;2022-08-24T01:14:13;19.80;99.90
22974;DHT22;11653;50.848;4.584;2022-08-24T01:16:39;19.80;99.90
22974;DHT22;11653;50.848;4.584;2022-08-24T01:19:41;19.80;99.90
22974;DHT22;11653;50.848;4.584;2022-08-24T01:24:36;19.70;99.90
22974;DHT22;11653;50.848;4.584;2022-08-24T01:27:03;19.70;99.90
22974;DHT22;11653;50.848;4.584;2022-08-24T01:29:29;19.70;99.90
22974;DHT22;11653;50.848;4.584;2022-08-24T01:31:56;19.60;99.90
22974;DHT22;11653;50.848;4.584;2022-08-24T01:34:22;19.60;99.90
22974;DHT22;11653;50.848;4.584;2022-08-24T01:36:53;19.60;99.90
22974;DHT22;11653;50.848;4.584;2022-08-24T01:39:36;19.60;99.90
22974;DHT22;11653;50.848;4.584;2022-08-24T01:42:02;19.60;99.90
22974;DHT22;11653;50.848;4.584;2022-08-24T01:44:31;19.50;99.90
22974;DHT22;11653;50.848;4.584;2022-08-24T01:47:01;19.40;99.90
22974;DHT22;11653;50.848;4.584;2022-08-24T01:49:31;19.50;99.90
22974;DHT22;11653;50.848;4.584;2022-08-24T01:51:58;19.40;99.90
22974;DHT22;11653;50.848;4.584;2022-08-24T01:54:24;19.40;99.90
22974;DHT22;11653;50.848;4.584;2022-08-24T01:56:50;19.30;99.90
22974;DHT22;11653;50.848;4.584;2022-08-24T01:59:16;19.40;99.90
22974;DHT22;11653;50.848;4.584;2022-08-24T02:01:57;19.40;99.90
22974;DHT22;11653;50.848;4.584;2022-08-24T02:04:26;19.40;99.90
22974;DHT22;11653;50.848;4.584;2022-08-24T02:06:51;19.40;99.90
22974;DHT22;11653;50.848;4.584;2022-08-24T02:09:18;19.30;99.90
22974;DHT22;11653;50.848;4.584;2022-08-24T02:11:45;19.30;99.90
22974;DHT22;11653;50.848;4.584;2022-08-24T02:14:11;19.30;99.90
22974;DHT22;11653;50.848;4.584;2022-08-24T02:16:38;19.20;99.90
22974;DHT22;11653;50.848;4.584;2022-08-24T02:19:04;19.20;99.90
22974;DHT22;11653;50.848;4.584;2022-08-24T02:21:30;19.10;99.90
22974;DHT22;11653;50.848;4.584;2022-08-24T02:23:56;19.20;99.90
22974;DHT22;11653;50.848;4.584;2022-08-24T02:26:22;19.10;99.90
22974;DHT22;11653;50.848;4.584;2022-08-24T02:28:47;19.10;99.90
22974;DHT22;11653;50.848;4.584;2022-08-24T02:31:13;19.10;99.90
22974;DHT22;11653;50.848;4.584;2022-08-24T02:33:40;19.10;99.90
22974;DHT22;11653;50.848;4.584;2022-08-24T02:36:08;19.00;99.90
22974;DHT22;11653;50.848;4.584;2022-08-24T02:38:34;19.00;99.90
22974;DHT22;11653;50.848;4.584;2022-08-24T02:41:00;19.00;99.90
22974;DHT22;11653;50.848;4.584;2022-08-24T02:43:26;19.00;99.90
22974;DHT22;11653;50.848;4.584;2022-08-24T02:45:52;19.00;99.90
22974;DHT22;11653;50.848;4.584;2022-08-24T02:48:18;18.90;99.90
22974;DHT22;11653;50.848;4.584;2022-08-24T02:50:47;18.90;99.90
22974;DHT22;11653;50.848;4.584;2022-08-24T02:53:14;19.00;99.90
22974;DHT22;11653;50.848;4.584;2022-08-24T02:55:42;18.90;99.90
22974;DHT22;11653;50.848;4.584;2022-08-24T02:58:09;18.90;99.90
22974;DHT22;11653;50.848;4.584;2022-08-24T03:00:36;18.90;99.90
22974;DHT22;11653;50.848;4.584;2022-08-24T03:03:03;18.90;99.90
22974;DHT22;11653;50.848;4.584;2022-08-24T03:05:30;18.90;99.90
22974;DHT22;11653;50.848;4.584;2022-08-24T03:07:55;18.90;99.90
22974;DHT22;11653;50.848;4.584;2022-08-24T03:10:22;18.80;99.90
22974;DHT22;11653;50.848;4.584;2022-08-24T03:12:49;18.80;99.90
22974;DHT22;11653;50.848;4.584;2022-08-24T03:15:16;18.80;99.90
22974;DHT22;11653;50.848;4.584;2022-08-24T03:17:42;18.80;99.90
22974;DHT22;11653;50.848;4.584;2022-08-24T03:20:11;18.80;99.90
22974;DHT22;11653;50.848;4.584;2022-08-24T03:22:38;18.80;99.90
22974;DHT22;11653;50.848;4.584;2022-08-24T03:25:04;18.80;99.90
22974;DHT22;11653;50.848;4.584;2022-08-24T03:27:30;18.70;99.90
22974;DHT22;11653;50.848;4.584;2022-08-24T03:29:56;18.70;99.90
22974;DHT22;11653;50.848;4.584;2022-08-24T03:32:22;18.70;99.90
22974;DHT22;11653;50.848;4.584;2022-08-24T03:34:47;18.70;99.90
22974;DHT22;11653;50.848;4.584;2022-08-24T03:37:13;18.70;99.90
22974;DHT22;11653;50.848;4.584;2022-08-24T03:39:40;18.70;99.90
22974;DHT22;11653;50.848;4.584;2022-08-24T03:42:06;18.70;99.90
22974;DHT22;11653;50.848;4.584;2022-08-24T03:44:32;18.70;99.90
22974;DHT22;11653;50.848;4.584;2022-08-24T03:46:58;18.70;99.90
22974;DHT22;11653;50.848;4.584;2022-08-24T03:49:24;18.60;99.90
22974;DHT22;11653;50.848;4.584;2022-08-24T03:51:50;18.60;99.90
22974;DHT22;11653;50.848;4.584;2022-08-24T03:54:16;18.60;99.90
22974;DHT22;11653;50.848;4.584;2022-08-24T03:56:42;18.60;99.90
22974;DHT22;11653;50.848;4.584;2022-08-24T03:59:09;18.60;99.90
22974;DHT22;11653;50.848;4.584;2022-08-24T04:01:36;18.50;99.90
22974;DHT22;11653;50.848;4.584;2022-08-24T04:04:03;18.50;99.90
22974;DHT22;11653;50.848;4.584;2022-08-24T04:06:28;18.50;99.90
22974;DHT22;11653;50.848;4.584;2022-08-24T04:08:55;18.50;99.90
22974;DHT22;11653;50.848;4.584;2022-08-24T04:11:25;18.50;99.90
22974;DHT22;11653;50.848;4.584;2022-08-24T04:13:53;18.40;99.90
22974;DHT22;11653;50.848;4.584;2022-08-24T04:16:21;18.40;99.90
22974;DHT22;11653;50.848;4.584;2022-08-24T04:18:48;18.40;99.90
22974;DHT22;11653;50.848;4.584;2022-08-24T04:21:23;18.40;99.90
22974;DHT22;11653;50.848;4.584;2022-08-24T04:23:50;18.40;99.90
22974;DHT22;11653;50.848;4.584;2022-08-24T04:26:21;18.40;99.90
22974;DHT22;11653;50.848;4.584;2022-08-24T04:28:47;18.40;99.90
22974;DHT22;11653;50.848;4.584;2022-08-24T04:31:13;18.50;99.90
22974;DHT22;11653;50.848;4.584;2022-08-24T04:33:45;18.40;99.90
22974;DHT22;11653;50.848;4.584;2022-08-24T04:36:14;18.40;99.90
22974;DHT22;11653;50.848;4.584;2022-08-24T04:38:40;18.40;99.90
22974;DHT22;11653;50.848;4.584;2022-08-24T04:41:08;18.40;99.90
22974;DHT22;11653;50.848;4.584;2022-08-24T04:43:34;18.40;99.90
22974;DHT22;11653;50.848;4.584;2022-08-24T04:46:05;18.40;99.90
22974;DHT22;11653;50.848;4.584;2022-08-24T04:48:31;18.40;99.90
22974;DHT22;11653;50.848;4.584;2022-08-24T04:51:01;18.30;99.90
22974;DHT22;11653;50.848;4.584;2022-08-24T04:53:28;18.30;99.90
22974;DHT22;11653;50.848;4.584;2022-08-24T04:55:53;18.30;99.90
22974;DHT22;11653;50.848;4.584;2022-08-24T04:58:19;18.30;99.90
22974;DHT22;11653;50.848;4.584;2022-08-24T05:00:46;18.40;99.90
22974;DHT22;11653;50.848;4.584;2022-08-24T05:03:12;18.40;99.90
22974;DHT22;11653;50.848;4.584;2022-08-24T05:05:43;18.40;99.90
22974;DHT22;11653;50.848;4.584;2022-08-24T05:08:10;18.40;99.90
22974;DHT22;11653;50.848;4.584;2022-08-24T05:10:41;18.50;99.90
22974;DHT22;11653;50.848;4.584;2022-08-24T05:13:07;18.50;99.90
22974;DHT22;11653;50.848;4.584;2022-08-24T05:15:33;18.40;99.90
22974;DHT22;11653;50.848;4.584;2022-08-24T05:18:00;18.50;99.90
22974;DHT22;11653;50.848;4.584;2022-08-24T05:20:27;18.50;99.90
22974;DHT22;11653;50.848;4.584;2022-08-24T05:22:53;18.60;99.90
22974;DHT22;11653;50.848;4.584;2022-08-24T05:25:20;18.70;99.90
22974;DHT22;11653;50.848;4.584;2022-08-24T05:27:46;18.90;99.90
22974;DHT22;11653;50.848;4.584;2022-08-24T05:30:12;19.20;99.90
22974;DHT22;11653;50.848;4.584;2022-08-24T05:32:38;19.60;99.90
22974;DHT22;11653;50.848;4.584;2022-08-24T05:35:05;20.00;99.90
22974;DHT22;11653;50.848;4.584;2022-08-24T05:37:35;20.50;99.90
22974;DHT22;11653;50.848;4.584;2022-08-24T05:40:07;20.90;99.90
22974;DHT22;11653;50.848;4.584;2022-08-24T05:42:34;21.40;99.90
22974;DHT22;11653;50.848;4.584;2022-08-24T05:45:00;21.90;99.90
22974;DHT22;11653;50.848;4.584;2022-08-24T05:47:25;22.30;99.90
22974;DHT22;11653;50.848;4.584;2022-08-24T05:49:51;22.80;99.90
22974;DHT22;11653;50.848;4.584;2022-08-24T05:52:19;23.20;99.90
22974;DHT22;11653;50.848;4.584;2022-08-24T05:54:51;23.80;99.90
22974;DHT22;11653;50.848;4.584;2022-08-24T05:57:17;24.20;99.90
22974;DHT22;11653;50.848;4.584;2022-08-24T05:59:43;24.70;99.90
22974;DHT22;11653;50.848;4.584;2022-08-24T06:02:08;25.20;99.90
22974;DHT22;11653;50.848;4.584;2022-08-24T06:04:34;25.60;99.90
22974;DHT22;11653;50.848;4.584;2022-08-24T06:07:03;26.10;99.90
22974;DHT22;11653;50.848;4.584;2022-08-24T06:09:29;26.50;99.90
22974;DHT22;11653;50.848;4.584;2022-08-24T06:11:54;26.90;99.90
22974;DHT22;11653;50.848;4.584;2022-08-24T06:14:20;27.60;99.90
22974;DHT22;11653;50.848;4.584;2022-08-24T06:16:46;28.00;99.90
22974;DHT22;11653;50.848;4.584;2022-08-24T06:19:16;28.50;99.60
22974;DHT22;11653;50.848;4.584;2022-08-24T06:21:43;29.00;98.70
22974;DHT22;11653;50.848;4.584;2022-08-24T06:24:11;29.40;97.20
22974;DHT22;11653;50.848;4.584;2022-08-24T06:26:37;29.80;96.30
22974;DHT22;11653;50.848;4.584;2022-08-24T06:29:21;30.40;95.40
22974;DHT22;11653;50.848;4.584;2022-08-24T06:31:48;31.10;94.10
22974;DHT22;11653;50.848;4.584;2022-08-24T06:34:16;31.70;92.60
22974;DHT22;11653;50.848;4.584;2022-08-24T06:36:42;32.00;91.60
22974;DHT22;11653;50.848;4.584;2022-08-24T06:39:09;31.70;91.30
22974;DHT22;11653;50.848;4.584;2022-08-24T06:41:36;31.20;91.50
22974;DHT22;11653;50.848;4.584;2022-08-24T06:44:02;30.70;92.20
22974;DHT22;11653;50.848;4.584;2022-08-24T06:46:28;30.10;93.30
22974;DHT22;11653;50.848;4.584;2022-08-24T06:48:54;29.50;95.00
22974;DHT22;11653;50.848;4.584;2022-08-24T06:51:21;29.00;96.40
22974;DHT22;11653;50.848;4.584;2022-08-24T06:53:48;28.70;97.40
22974;DHT22;11653;50.848;4.584;2022-08-24T06:56:15;28.30;98.20
22974;DHT22;11653;50.848;4.584;2022-08-24T06:58:42;28.00;99.70
22974;DHT22;11653;50.848;4.584;2022-08-24T07:01:13;27.90;99.90
22974;DHT22;11653;50.848;4.584;2022-08-24T07:03:40;27.90;99.90
22974;DHT22;11653;50.848;4.584;2022-08-24T07:06:07;28.10;99.90
22974;DHT22;11653;50.848;4.584;2022-08-24T07:08:33;28.40;99.90
22974;DHT22;11653;50.848;4.584;2022-08-24T07:10:59;28.50;99.90
22974;DHT22;11653;50.848;4.584;2022-08-24T07:13:24;28.60;99.90
22974;DHT22;11653;50.848;4.584;2022-08-24T07:15:51;28.60;99.90
22974;DHT22;11653;50.848;4.584;2022-08-24T07:18:19;28.60;99.90
22974;DHT22;11653;50.848;4.584;2022-08-24T07:20:46;28.50;99.90
22974;DHT22;11653;50.848;4.584;2022-08-24T07:23:12;28.40;99.90
22974;DHT22;11653;50.848;4.584;2022-08-24T07:25:40;28.50;99.90
22974;DHT22;11653;50.848;4.584;2022-08-24T07:28:06;28.60;99.90
22974;DHT22;11653;50.848;4.584;2022-08-24T07:30:32;28.90;99.90
22974;DHT22;11653;50.848;4.584;2022-08-24T07:32:58;29.20;99.50
22974;DHT22;11653;50.848;4.584;2022-08-24T07:35:26;29.30;98.70
22974;DHT22;11653;50.848;4.584;2022-08-24T07:37:52;29.10;98.60
22974;DHT22;11653;50.848;4.584;2022-08-24T07:40:19;28.90;98.90
22974;DHT22;11653;50.848;4.584;2022-08-24T07:42:50;28.60;99.40
22974;DHT22;11653;50.848;4.584;2022-08-24T07:45:16;28.50;99.90
22974;DHT22;11653;50.848;4.584;2022-08-24T07:47:43;28.30;99.90
22974;DHT22;11653;50.848;4.584;2022-08-24T07:50:11;28.20;99.90
22974;DHT22;11653;50.848;4.584;2022-08-24T07:52:37;28.00;99.90
22974;DHT22;11653;50.848;4.584;2022-08-24T07:55:04;27.70;99.90
22974;DHT22;11653;50.848;4.584;2022-08-24T07:57:30;27.70;99.90
22974;DHT22;11653;50.848;4.584;2022-08-24T07:59:58;27.90;99.90
22974;DHT22;11653;50.848;4.584;2022-08-24T08:02:24;28.30;99.90
22974;DHT22;11653;50.848;4.584;2022-08-24T08:04:50;28.50;99.90
22974;DHT22;11653;50.848;4.584;2022-08-24T08:07:18;28.40;99.90
22974;DHT22;11653;50.848;4.584;2022-08-24T08:09:44;28.30;99.90
22974;DHT22;11653;50.848;4.584;2022-08-24T08:12:10;28.10;99.90
22974;DHT22;11653;50.848;4.584;2022-08-24T08:14:37;28.00;99.90
22974;DHT22;11653;50.848;4.584;2022-08-24T08:17:03;27.90;99.90
22974;DHT22;11653;50.848;4.584;2022-08-24T08:19:29;27.60;99.90
22974;DHT22;11653;50.848;4.584;2022-08-24T08:21:55;27.40;99.90
22974;DHT22;11653;50.848;4.584;2022-08-24T08:24:40;27.40;99.90
22974;DHT22;11653;50.848;4.584;2022-08-24T08:27:10;27.40;99.90
22974;DHT22;11653;50.848;4.584;2022-08-24T08:29:38;27.50;99.90
22974;DHT22;11653;50.848;4.584;2022-08-24T08:32:09;27.50;99.90
22974;DHT22;11653;50.848;4.584;2022-08-24T08:34:36;27.60;99.90
22974;DHT22;11653;50.848;4.584;2022-08-24T08:37:02;27.70;99.90
22974;DHT22;11653;50.848;4.584;2022-08-24T08:39:29;27.50;99.90
22974;DHT22;11653;50.848;4.584;2022-08-24T08:42:07;27.60;99.90
22974;DHT22;11653;50.848;4.584;2022-08-24T08:51:08;27.40;99.90
22974;DHT22;11653;50.848;4.584;2022-08-24T08:56:05;27.50;99.90
22974;DHT22;11653;50.848;4.584;2022-08-24T09:23:55;33.70;90.30
22974;DHT22;11653;50.848;4.584;2022-08-24T09:26:37;34.70;85.70
22974;DHT22;11653;50.848;4.584;2022-08-24T09:32:24;37.20;71.10
22974;DHT22;11653;50.848;4.584;2022-08-24T09:34:54;38.40;67.30
22974;DHT22;11653;50.848;4.584;2022-08-24T09:50:56;40.90;54.10
22974;DHT22;11653;50.848;4.584;2022-08-24T09:58:56;41.60;50.60
22974;DHT22;11653;50.848;4.584;2022-08-24T10:04:55;40.90;51.90
22974;DHT22;11653;50.848;4.584;2022-08-24T10:07:35;41.40;51.30
22974;DHT22;11653;50.848;4.584;2022-08-24T10:18:37;42.00;48.90
22974;DHT22;11653;50.848;4.584;2022-08-24T10:24:39;43.20;47.00
22974;DHT22;11653;50.848;4.584;2022-08-24T10:27:22;42.70;46.50
22974;DHT22;11653;50.848;4.584;2022-08-24T10:35:25;43.50;45.40
22974;DHT22;11653;50.848;4.584;2022-08-24T10:47:24;43.40;43.90
22974;DHT22;11653;50.848;4.584;2022-08-24T10:52:49;43.50;43.70
22974;DHT22;11653;50.848;4.584;2022-08-24T10:55:27;44.20;43.10
22974;DHT22;11653;50.848;4.584;2022-08-24T11:00:30;43.30;43.20
22974;DHT22;11653;50.848;4.584;2022-08-24T11:03:18;43.40;43.30
22974;DHT22;11653;50.848;4.584;2022-08-24T11:05:49;43.60;42.30
22974;DHT22;11653;50.848;4.584;2022-08-24T11:08:27;43.30;43.00
22974;DHT22;11653;50.848;4.584;2022-08-24T11:11:12;42.80;43.60
22974;DHT22;11653;50.848;4.584;2022-08-24T11:16:33;43.20;42.40
22974;DHT22;11653;50.848;4.584;2022-08-24T11:19:02;42.70;43.00
22974;DHT22;11653;50.848;4.584;2022-08-24T11:27:00;39.90;45.90
22974;DHT22;11653;50.848;4.584;2022-08-24T11:34:52;41.40;43.60
22974;DHT22;11653;50.848;4.584;2022-08-24T11:37:23;42.30;42.00
22974;DHT22;11653;50.848;4.584;2022-08-24T11:39:54;43.20;40.70
22974;DHT22;11653;50.848;4.584;2022-08-24T11:45:02;43.20;40.60
22974;DHT22;11653;50.848;4.584;2022-08-24T11:52:40;42.80;39.80
22974;DHT22;11653;50.848;4.584;2022-08-24T12:01:25;44.00;37.70
22974;DHT22;11653;50.848;4.584;2022-08-24T12:09:37;44.10;37.50
22974;DHT22;11653;50.848;4.584;2022-08-24T12:12:26;44.30;38.00
22974;DHT22;11653;50.848;4.584;2022-08-24T12:15:01;44.10;37.80
22974;DHT22;11653;50.848;4.584;2022-08-24T12:17:41;43.90;37.80
22974;DHT22;11653;50.848;4.584;2022-08-24T12:20:31;42.10;39.00
22974;DHT22;11653;50.848;4.584;2022-08-24T12:23:37;42.10;39.40
22974;DHT22;11653;50.848;4.584;2022-08-24T12:26:16;41.70;39.70
22974;DHT22;11653;50.848;4.584;2022-08-24T12:28:51;41.40;40.40
22974;DHT22;11653;50.848;4.584;2022-08-24T12:34:11;39.80;43.60
22974;DHT22;11653;50.848;4.584;2022-08-24T12:37:08;38.40;44.50
22974;DHT22;11653;50.848;4.584;2022-08-24T12:42:22;36.60;48.10
22974;DHT22;11653;50.848;4.584;2022-08-24T12:44:55;36.40;48.00
22974;DHT22;11653;50.848;4.584;2022-08-24T12:50:14;36.10;49.10
22974;DHT22;11653;50.848;4.584;2022-08-24T12:52:57;35.90;50.00
22974;DHT22;11653;50.848;4.584;2022-08-24T12:55:40;35.70;49.70
22974;DHT22;11653;50.848;4.584;2022-08-24T13:01:04;35.30;50.70
22974;DHT22;11653;50.848;4.584;2022-08-24T13:03:38;35.00;50.10
22974;DHT22;11653;50.848;4.584;2022-08-24T13:06:18;34.90;51.40
22974;DHT22;11653;50.848;4.584;2022-08-24T13:08:49;34.70;51.70
22974;DHT22;11653;50.848;4.584;2022-08-24T13:11:32;34.40;52.40
22974;DHT22;11653;50.848;4.584;2022-08-24T13:14:17;34.20;52.00
22974;DHT22;11653;50.848;4.584;2022-08-24T13:21:57;34.70;52.60
22974;DHT22;11653;50.848;4.584;2022-08-24T13:29:44;35.00;52.50
22974;DHT22;11653;50.848;4.584;2022-08-24T13:32:21;35.00;51.50
22974;DHT22;11653;50.848;4.584;2022-08-24T13:34:49;35.10;51.40
22974;DHT22;11653;50.848;4.584;2022-08-24T13:37:21;35.20;51.80
22974;DHT22;11653;50.848;4.584;2022-08-24T13:40:32;35.10;52.10
22974;DHT22;11653;50.848;4.584;2022-08-24T13:43:05;35.00;51.90
22974;DHT22;11653;50.848;4.584;2022-08-24T13:49:02;34.80;52.10
22974;DHT22;11653;50.848;4.584;2022-08-24T13:51:43;34.60;52.30
22974;DHT22;11653;50.848;4.584;2022-08-24T13:54:33;34.10;51.90
22974;DHT22;11653;50.848;4.584;2022-08-24T14:16:34;34.30;53.20
22974;DHT22;11653;50.848;4.584;2022-08-24T14:23:05;34.30;53.00
22974;DHT22;11653;50.848;4.584;2022-08-24T14:25:35;34.50;54.10
22974;DHT22;11653;50.848;4.584;2022-08-24T14:30:48;34.60;52.30
22974;DHT22;11653;50.848;4.584;2022-08-24T14:33:34;34.40;52.30
22974;DHT22;11653;50.848;4.584;2022-08-24T14:36:14;34.30;54.30
22974;DHT22;11653;50.848;4.584;2022-08-24T14:41:26;34.70;53.80
22974;DHT22;11653;50.848;4.584;2022-08-24T14:44:11;34.70;52.90
22974;DHT22;11653;50.848;4.584;2022-08-24T14:46:49;34.80;53.20
22974;DHT22;11653;50.848;4.584;2022-08-24T14:49:35;34.90;52.00
22974;DHT22;11653;50.848;4.584;2022-08-24T15:00:20;34.70;54.30
22974;DHT22;11653;50.848;4.584;2022-08-24T15:10:52;34.30;56.50
22974;DHT22;11653;50.848;4.584;2022-08-24T15:16:17;33.60;55.40
22974;DHT22;11653;50.848;4.584;2022-08-24T15:19:10;33.50;55.40
22974;DHT22;11653;50.848;4.584;2022-08-24T15:29:52;33.50;56.60
22974;DHT22;11653;50.848;4.584;2022-08-24T15:32:19;33.50;58.80
22974;DHT22;11653;50.848;4.584;2022-08-24T15:34:48;33.60;62.10
22974;DHT22;11653;50.848;4.584;2022-08-24T15:37:28;33.60;59.00
22974;DHT22;11653;50.848;4.584;2022-08-24T15:39:55;33.60;60.90
22974;DHT22;11653;50.848;4.584;2022-08-24T15:42:21;33.60;60.10
22974;DHT22;11653;50.848;4.584;2022-08-24T15:44:48;33.60;58.90
22974;DHT22;11653;50.848;4.584;2022-08-24T15:52:52;33.70;57.00
22974;DHT22;11653;50.848;4.584;2022-08-24T15:55:42;33.60;55.70
22974;DHT22;11653;50.848;4.584;2022-08-24T16:01:17;33.50;56.00
22974;DHT22;11653;50.848;4.584;2022-08-24T16:04:13;33.40;56.40
22974;DHT22;11653;50.848;4.584;2022-08-24T16:06:58;33.40;56.40
22974;DHT22;11653;50.848;4.584;2022-08-24T16:17:01;33.60;56.80
22974;DHT22;11653;50.848;4.584;2022-08-24T16:19:49;33.50;57.00
22974;DHT22;11653;50.848;4.584;2022-08-24T16:22:34;33.60;56.90
22974;DHT22;11653;50.848;4.584;2022-08-24T16:25:31;33.60;56.60
22974;DHT22;11653;50.848;4.584;2022-08-24T16:36:01;33.80;55.30
22974;DHT22;11653;50.848;4.584;2022-08-24T16:38:28;33.90;54.70
22974;DHT22;11653;50.848;4.584;2022-08-24T16:41:21;33.80;54.90
22974;DHT22;11653;50.848;4.584;2022-08-24T16:43:48;33.80;55.20
22974;DHT22;11653;50.848;4.584;2022-08-24T16:46:19;33.70;55.00
22974;DHT22;11653;50.848;4.584;2022-08-24T16:48:44;33.70;55.10
22974;DHT22;11653;50.848;4.584;2022-08-24T16:51:10;33.70;54.60
22974;DHT22;11653;50.848;4.584;2022-08-24T16:53:36;33.70;55.30
22974;DHT22;11653;50.848;4.584;2022-08-24T16:56:02;33.70;55.20
22974;DHT22;11653;50.848;4.584;2022-08-24T16:58:33;33.70;54.50
22974;DHT22;11653;50.848;4.584;2022-08-24T17:01:00;33.70;54.90
22974;DHT22;11653;50.848;4.584;2022-08-24T17:03:27;33.60;55.00
22974;DHT22;11653;50.848;4.584;2022-08-24T17:05:53;33.50;54.70
22974;DHT22;11653;50.848;4.584;2022-08-24T17:08:19;33.50;55.00
22974;DHT22;11653;50.848;4.584;2022-08-24T17:10:45;33.30;55.40
22974;DHT22;11653;50.848;4.584;2022-08-24T17:13:11;33.30;55.20
22974;DHT22;11653;50.848;4.584;2022-08-24T17:15:36;33.20;55.30
22974;DHT22;11653;50.848;4.584;2022-08-24T17:18:06;33.20;55.40
22974;DHT22;11653;50.848;4.584;2022-08-24T17:20:33;33.10;55.90
22974;DHT22;11653;50.848;4.584;2022-08-24T17:22:59;33.00;55.80
22974;DHT22;11653;50.848;4.584;2022-08-24T17:25:26;33.00;56.30
22974;DHT22;11653;50.848;4.584;2022-08-24T17:27:53;32.90;56.90
22974;DHT22;11653;50.848;4.584;2022-08-24T17:30:20;32.80;56.90
22974;DHT22;11653;50.848;4.584;2022-08-24T17:32:50;32.70;57.60
22974;DHT22;11653;50.848;4.584;2022-08-24T17:35:17;32.60;57.60
22974;DHT22;11653;50.848;4.584;2022-08-24T17:37:43;32.50;57.70
22974;DHT22;11653;50.848;4.584;2022-08-24T17:40:13;32.50;57.90
22974;DHT22;11653;50.848;4.584;2022-08-24T17:42:40;32.40;58.60
22974;DHT22;11653;50.848;4.584;2022-08-24T17:45:06;32.30;59.00
22974;DHT22;11653;50.848;4.584;2022-08-24T17:47:32;32.30;59.80
22974;DHT22;11653;50.848;4.584;2022-08-24T17:49:59;32.20;59.50
22974;DHT22;11653;50.848;4.584;2022-08-24T17:52:25;32.10;59.90
22974;DHT22;11653;50.848;4.584;2022-08-24T17:54:51;32.10;60.70
22974;DHT22;11653;50.848;4.584;2022-08-24T17:57:18;32.00;61.10
22974;DHT22;11653;50.848;4.584;2022-08-24T17:59:45;31.90;61.60
22974;DHT22;11653;50.848;4.584;2022-08-24T18:02:11;31.80;62.40
22974;DHT22;11653;50.848;4.584;2022-08-24T18:04:38;31.80;63.40
22974;DHT22;11653;50.848;4.584;2022-08-24T18:07:10;31.70;64.00
22974;DHT22;11653;50.848;4.584;2022-08-24T18:12:17;31.50;64.40
22974;DHT22;11653;50.848;4.584;2022-08-24T18:14:43;31.40;65.00
22974;DHT22;11653;50.848;4.584;2022-08-24T18:17:13;31.30;65.40
22974;DHT22;11653;50.848;4.584;2022-08-24T18:19:42;31.20;66.30
22974;DHT22;11653;50.848;4.584;2022-08-24T18:22:09;31.10;66.30
22974;DHT22;11653;50.848;4.584;2022-08-24T18:24:36;31.00;66.70
22974;DHT22;11653;50.848;4.584;2022-08-24T18:27:06;31.00;67.00
22974;DHT22;11653;50.848;4.584;2022-08-24T18:29:32;30.80;68.00
22974;DHT22;11653;50.848;4.584;2022-08-24T18:31:59;30.80;69.30
22974;DHT22;11653;50.848;4.584;2022-08-24T18:34:25;30.70;69.50
22974;DHT22;11653;50.848;4.584;2022-08-24T18:36:51;30.60;70.20
22974;DHT22;11653;50.848;4.584;2022-08-24T18:39:17;30.50;70.50
22974;DHT22;11653;50.848;4.584;2022-08-24T18:41:45;30.40;71.30
22974;DHT22;11653;50.848;4.584;2022-08-24T18:44:12;30.30;71.70
22974;DHT22;11653;50.848;4.584;2022-08-24T18:46:40;30.20;72.60
22974;DHT22;11653;50.848;4.584;2022-08-24T18:49:05;30.10;73.30
22974;DHT22;11653;50.848;4.584;2022-08-24T18:51:32;30.00;73.80
22974;DHT22;11653;50.848;4.584;2022-08-24T18:54:08;29.90;74.40
22974;DHT22;11653;50.848;4.584;2022-08-24T18:56:35;29.80;75.00
22974;DHT22;11653;50.848;4.584;2022-08-24T18:59:01;29.70;75.60
22974;DHT22;11653;50.848;4.584;2022-08-24T19:01:28;29.50;77.20
22974;DHT22;11653;50.848;4.584;2022-08-24T19:03:54;29.40;77.00
22974;DHT22;11653;50.848;4.584;2022-08-24T19:06:21;29.30;77.50
22974;DHT22;11653;50.848;4.584;2022-08-24T19:08:47;29.20;78.00
22974;DHT22;11653;50.848;4.584;2022-08-24T19:11:13;29.00;78.50
22974;DHT22;11653;50.848;4.584;2022-08-24T19:13:42;28.90;79.60
22974;DHT22;11653;50.848;4.584;2022-08-24T19:16:08;28.80;80.50
22974;DHT22;11653;50.848;4.584;2022-08-24T19:18:34;28.60;81.20
22974;DHT22;11653;50.848;4.584;2022-08-24T19:20:59;28.60;82.00
22974;DHT22;11653;50.848;4.584;2022-08-24T19:23:29;28.40;82.60
22974;DHT22;11653;50.848;4.584;2022-08-24T19:25:56;28.30;83.80
22974;DHT22;11653;50.848;4.584;2022-08-24T19:28:23;28.20;84.40
22974;DHT22;11653;50.848;4.584;2022-08-24T19:30:51;28.00;85.30
22974;DHT22;11653;50.848;4.584;2022-08-24T19:33:26;27.90;86.00
22974;DHT22;11653;50.848;4.584;2022-08-24T19:35:53;27.80;87.20
22974;DHT22;11653;50.848;4.584;2022-08-24T19:38:19;27.60;88.90
22974;DHT22;11653;50.848;4.584;2022-08-24T19:40:45;27.50;90.20
22974;DHT22;11653;50.848;4.584;2022-08-24T19:43:12;27.40;90.70